sensor_id;sensor_type;location;lat;lon;timestamp;P1;durP1;ratioP1;P2;durP2;ratioP2
56523;SDS011;42422;47.540;18.712;2022-07-23T00:00:49;5.18;;;2.97;;
56523;SDS011;42422;47.540;18.712;2022-07-23T00:03:14;4.72;;;2.90;;
56523;SDS011;42422;47.540;18.712;2022-07-23T00:05:39;3.17;;;2.42;;
56523;SDS011;42422;47.540;18.712;2022-07-23T00:08:05;3.75;;;2.88;;
56523;SDS011;42422;47.540;18.712;2022-07-23T00:10:31;5.65;;;3.13;;
56523;SDS011;42422;47.540;18.712;2022-07-23T00:12:57;4.78;;;3.00;;
56523;SDS011;42422;47.540;18.712;2022-07-23T00:15:22;4.13;;;3.10;;
56523;SDS011;42422;47.540;18.712;2022-07-23T00:17:47;4.97;;;3.35;;
56523;SDS011;42422;47.540;18.712;2022-07-23T00:20:13;6.47;;;2.67;;
56523;SDS011;42422;47.540;18.712;2022-07-23T00:22:57;4.80;;;2.95;;
56523;SDS011;42422;47.540;18.712;2022-07-23T00:25:22;4.90;;;2.65;;
56523;SDS011;42422;47.540;18.712;2022-07-23T00:27:48;6.15;;;3.10;;
56523;SDS011;42422;47.540;18.712;2022-07-23T00:30:14;4.00;;;2.67;;
56523;SDS011;42422;47.540;18.712;2022-07-23T00:32:49;4.75;;;2.63;;
56523;SDS011;42422;47.540;18.712;2022-07-23T00:35:19;4.32;;;3.00;;
56523;SDS011;42422;47.540;18.712;2022-07-23T00:37:45;4.70;;;3.97;;
56523;SDS011;42422;47.540;18.712;2022-07-23T00:40:11;7.53;;;2.83;;
56523;SDS011;42422;47.540;18.712;2022-07-23T00:42:36;4.25;;;3.20;;
56523;SDS011;42422;47.540;18.712;2022-07-23T00:45:02;3.78;;;2.88;;
56523;SDS011;42422;47.540;18.712;2022-07-23T00:47:28;4.50;;;2.80;;
56523;SDS011;42422;47.540;18.712;2022-07-23T00:49:53;4.15;;;3.00;;
56523;SDS011;42422;47.540;18.712;2022-07-23T00:52:18;3.83;;;3.05;;
56523;SDS011;42422;47.540;18.712;2022-07-23T00:54:44;6.82;;;2.95;;
56523;SDS011;42422;47.540;18.712;2022-07-23T00:57:09;4.90;;;2.42;;
56523;SDS011;42422;47.540;18.712;2022-07-23T00:59:34;4.20;;;3.00;;
56523;SDS011;42422;47.540;18.712;2022-07-23T01:02:00;4.60;;;2.80;;
56523;SDS011;42422;47.540;18.712;2022-07-23T01:04:25;7.38;;;2.70;;
56523;SDS011;42422;47.540;18.712;2022-07-23T01:06:51;3.63;;;2.70;;
56523;SDS011;42422;47.540;18.712;2022-07-23T01:09:17;3.67;;;2.55;;
56523;SDS011;42422;47.540;18.712;2022-07-23T01:11:42;5.18;;;3.28;;
56523;SDS011;42422;47.540;18.712;2022-07-23T01:14:09;4.95;;;2.65;;
56523;SDS011;42422;47.540;18.712;2022-07-23T01:16:35;3.72;;;2.95;;
56523;SDS011;42422;47.540;18.712;2022-07-23T01:19:00;5.80;;;2.53;;
56523;SDS011;42422;47.540;18.712;2022-07-23T01:21:26;3.78;;;2.60;;
56523;SDS011;42422;47.540;18.712;2022-07-23T01:23:51;3.50;;;2.65;;
56523;SDS011;42422;47.540;18.712;2022-07-23T01:26:17;4.47;;;2.55;;
56523;SDS011;42422;47.540;18.712;2022-07-23T01:28:42;6.75;;;2.83;;
56523;SDS011;42422;47.540;18.712;2022-07-23T01:31:08;4.22;;;2.85;;
56523;SDS011;42422;47.540;18.712;2022-07-23T01:33:33;3.50;;;2.72;;
56523;SDS011;42422;47.540;18.712;2022-07-23T01:35:58;3.63;;;2.75;;
56523;SDS011;42422;47.540;18.712;2022-07-23T01:38:24;4.03;;;3.28;;
56523;SDS011;42422;47.540;18.712;2022-07-23T01:40:49;5.25;;;3.15;;
56523;SDS011;42422;47.540;18.712;2022-07-23T01:43:14;4.13;;;2.95;;
56523;SDS011;42422;47.540;18.712;2022-07-23T01:45:40;3.05;;;2.38;;
56523;SDS011;42422;47.540;18.712;2022-07-23T01:48:06;5.13;;;3.10;;
56523;SDS011;42422;47.540;18.712;2022-07-23T01:50:32;4.45;;;3.10;;
56523;SDS011;42422;47.540;18.712;2022-07-23T01:52:57;5.03;;;2.72;;
56523;SDS011;42422;47.540;18.712;2022-07-23T01:55:22;3.63;;;2.95;;
56523;SDS011;42422;47.540;18.712;2022-07-23T01:57:48;3.33;;;2.95;;
56523;SDS011;42422;47.540;18.712;2022-07-23T02:00:13;8.55;;;3.28;;
56523;SDS011;42422;47.540;18.712;2022-07-23T02:02:39;5.28;;;3.30;;
56523;SDS011;42422;47.540;18.712;2022-07-23T02:05:04;4.85;;;3.00;;
56523;SDS011;42422;47.540;18.712;2022-07-23T02:07:30;5.95;;;3.10;;
56523;SDS011;42422;47.540;18.712;2022-07-23T02:09:55;4.55;;;3.20;;
56523;SDS011;42422;47.540;18.712;2022-07-23T02:12:20;6.20;;;3.50;;
56523;SDS011;42422;47.540;18.712;2022-07-23T02:14:46;3.53;;;2.63;;
56523;SDS011;42422;47.540;18.712;2022-07-23T02:17:11;5.18;;;3.22;;
56523;SDS011;42422;47.540;18.712;2022-07-23T02:19:36;5.88;;;2.83;;
56523;SDS011;42422;47.540;18.712;2022-07-23T02:22:02;4.88;;;3.03;;
56523;SDS011;42422;47.540;18.712;2022-07-23T02:24:27;3.90;;;2.70;;
56523;SDS011;42422;47.540;18.712;2022-07-23T02:26:52;3.95;;;2.78;;
56523;SDS011;42422;47.540;18.712;2022-07-23T02:29:18;6.40;;;2.88;;
56523;SDS011;42422;47.540;18.712;2022-07-23T02:31:43;9.38;;;3.20;;
56523;SDS011;42422;47.540;18.712;2022-07-23T02:34:09;5.38;;;2.92;;
56523;SDS011;42422;47.540;18.712;2022-07-23T02:36:36;4.25;;;3.03;;
56523;SDS011;42422;47.540;18.712;2022-07-23T02:39:02;4.25;;;3.00;;
56523;SDS011;42422;47.540;18.712;2022-07-23T02:41:28;3.55;;;2.80;;
56523;SDS011;42422;47.540;18.712;2022-07-23T02:43:53;4.32;;;3.10;;
56523;SDS011;42422;47.540;18.712;2022-07-23T02:46:18;4.85;;;2.75;;
56523;SDS011;42422;47.540;18.712;2022-07-23T02:48:44;6.55;;;2.97;;
56523;SDS011;42422;47.540;18.712;2022-07-23T02:51:09;5.18;;;3.10;;
56523;SDS011;42422;47.540;18.712;2022-07-23T02:53:34;6.13;;;3.50;;
56523;SDS011;42422;47.540;18.712;2022-07-23T02:56:00;4.78;;;3.20;;
56523;SDS011;42422;47.540;18.712;2022-07-23T02:58:25;3.92;;;2.53;;
56523;SDS011;42422;47.540;18.712;2022-07-23T03:00:52;8.02;;;2.75;;
56523;SDS011;42422;47.540;18.712;2022-07-23T03:03:17;3.88;;;2.90;;
56523;SDS011;42422;47.540;18.712;2022-07-23T03:05:43;5.43;;;2.75;;
56523;SDS011;42422;47.540;18.712;2022-07-23T03:08:08;4.03;;;2.70;;
56523;SDS011;42422;47.540;18.712;2022-07-23T03:10:33;3.92;;;2.72;;
56523;SDS011;42422;47.540;18.712;2022-07-23T03:12:59;5.88;;;3.17;;
56523;SDS011;42422;47.540;18.712;2022-07-23T03:15:24;3.13;;;2.67;;
56523;SDS011;42422;47.540;18.712;2022-07-23T03:17:50;5.50;;;3.08;;
56523;SDS011;42422;47.540;18.712;2022-07-23T03:20:15;7.35;;;3.17;;
56523;SDS011;42422;47.540;18.712;2022-07-23T03:22:40;4.50;;;2.60;;
56523;SDS011;42422;47.540;18.712;2022-07-23T03:25:06;6.50;;;3.45;;
56523;SDS011;42422;47.540;18.712;2022-07-23T03:27:32;3.17;;;2.78;;
56523;SDS011;42422;47.540;18.712;2022-07-23T03:29:58;4.60;;;2.78;;
56523;SDS011;42422;47.540;18.712;2022-07-23T03:32:24;4.55;;;2.70;;
56523;SDS011;42422;47.540;18.712;2022-07-23T03:34:49;4.30;;;2.92;;
56523;SDS011;42422;47.540;18.712;2022-07-23T03:37:16;4.72;;;2.83;;
56523;SDS011;42422;47.540;18.712;2022-07-23T03:39:41;3.92;;;3.03;;
56523;SDS011;42422;47.540;18.712;2022-07-23T03:42:07;6.90;;;2.88;;
56523;SDS011;42422;47.540;18.712;2022-07-23T03:44:32;5.18;;;2.92;;
56523;SDS011;42422;47.540;18.712;2022-07-23T03:46:58;5.30;;;3.25;;
56523;SDS011;42422;47.540;18.712;2022-07-23T03:49:24;6.07;;;2.85;;
56523;SDS011;42422;47.540;18.712;2022-07-23T03:51:49;5.03;;;2.67;;
56523;SDS011;42422;47.540;18.712;2022-07-23T03:54:14;4.40;;;2.55;;
56523;SDS011;42422;47.540;18.712;2022-07-23T03:56:40;6.38;;;2.80;;
56523;SDS011;42422;47.540;18.712;2022-07-23T03:59:05;5.93;;;3.38;;
56523;SDS011;42422;47.540;18.712;2022-07-23T04:01:31;7.90;;;4.00;;
56523;SDS011;42422;47.540;18.712;2022-07-23T04:03:56;3.90;;;3.13;;
56523;SDS011;42422;47.540;18.712;2022-07-23T04:06:21;5.93;;;3.17;;
56523;SDS011;42422;47.540;18.712;2022-07-23T04:08:47;4.85;;;3.10;;
56523;SDS011;42422;47.540;18.712;2022-07-23T04:11:12;4.63;;;3.20;;
56523;SDS011;42422;47.540;18.712;2022-07-23T04:13:38;4.53;;;2.67;;
56523;SDS011;42422;47.540;18.712;2022-07-23T04:16:03;4.68;;;2.80;;
56523;SDS011;42422;47.540;18.712;2022-07-23T04:18:29;4.47;;;3.10;;
56523;SDS011;42422;47.540;18.712;2022-07-23T04:20:54;3.15;;;2.60;;
56523;SDS011;42422;47.540;18.712;2022-07-23T04:23:20;4.88;;;3.13;;
56523;SDS011;42422;47.540;18.712;2022-07-23T04:25:45;3.33;;;2.42;;
56523;SDS011;42422;47.540;18.712;2022-07-23T04:28:10;4.60;;;3.00;;
56523;SDS011;42422;47.540;18.712;2022-07-23T04:30:36;3.42;;;2.20;;
56523;SDS011;42422;47.540;18.712;2022-07-23T04:33:01;6.43;;;3.28;;
56523;SDS011;42422;47.540;18.712;2022-07-23T04:35:30;4.20;;;3.03;;
56523;SDS011;42422;47.540;18.712;2022-07-23T04:37:55;5.20;;;3.13;;
56523;SDS011;42422;47.540;18.712;2022-07-23T04:40:21;6.03;;;3.47;;
56523;SDS011;42422;47.540;18.712;2022-07-23T04:42:46;6.18;;;3.58;;
56523;SDS011;42422;47.540;18.712;2022-07-23T04:45:11;5.05;;;3.28;;
56523;SDS011;42422;47.540;18.712;2022-07-23T04:47:37;8.40;;;3.50;;
56523;SDS011;42422;47.540;18.712;2022-07-23T04:50:02;4.75;;;3.10;;
56523;SDS011;42422;47.540;18.712;2022-07-23T04:52:28;7.95;;;3.88;;
56523;SDS011;42422;47.540;18.712;2022-07-23T04:54:53;7.10;;;3.53;;
56523;SDS011;42422;47.540;18.712;2022-07-23T04:57:18;6.25;;;3.35;;
56523;SDS011;42422;47.540;18.712;2022-07-23T04:59:44;7.03;;;3.53;;
56523;SDS011;42422;47.540;18.712;2022-07-23T05:02:09;4.72;;;3.33;;
56523;SDS011;42422;47.540;18.712;2022-07-23T05:04:34;7.25;;;3.13;;
56523;SDS011;42422;47.540;18.712;2022-07-23T05:07:00;4.80;;;3.42;;
56523;SDS011;42422;47.540;18.712;2022-07-23T05:09:25;3.65;;;2.80;;
56523;SDS011;42422;47.540;18.712;2022-07-23T05:11:50;5.65;;;3.55;;
56523;SDS011;42422;47.540;18.712;2022-07-23T05:14:16;5.65;;;2.97;;
56523;SDS011;42422;47.540;18.712;2022-07-23T05:16:41;5.70;;;4.00;;
56523;SDS011;42422;47.540;18.712;2022-07-23T05:19:07;6.20;;;3.35;;
56523;SDS011;42422;47.540;18.712;2022-07-23T05:21:32;6.40;;;3.80;;
56523;SDS011;42422;47.540;18.712;2022-07-23T05:23:58;5.78;;;3.63;;
56523;SDS011;42422;47.540;18.712;2022-07-23T05:26:23;6.90;;;3.47;;
56523;SDS011;42422;47.540;18.712;2022-07-23T05:28:49;5.13;;;3.60;;
56523;SDS011;42422;47.540;18.712;2022-07-23T05:31:14;7.57;;;3.40;;
56523;SDS011;42422;47.540;18.712;2022-07-23T05:33:39;6.43;;;3.42;;
56523;SDS011;42422;47.540;18.712;2022-07-23T05:36:05;5.88;;;2.95;;
56523;SDS011;42422;47.540;18.712;2022-07-23T05:38:31;4.93;;;3.80;;
56523;SDS011;42422;47.540;18.712;2022-07-23T05:40:57;5.65;;;3.45;;
56523;SDS011;42422;47.540;18.712;2022-07-23T05:43:22;5.53;;;2.78;;
56523;SDS011;42422;47.540;18.712;2022-07-23T05:45:47;4.22;;;3.40;;
56523;SDS011;42422;47.540;18.712;2022-07-23T05:48:13;3.75;;;2.90;;
56523;SDS011;42422;47.540;18.712;2022-07-23T05:50:38;5.32;;;3.38;;
56523;SDS011;42422;47.540;18.712;2022-07-23T05:53:03;6.70;;;3.47;;
56523;SDS011;42422;47.540;18.712;2022-07-23T05:55:29;6.07;;;3.15;;
56523;SDS011;42422;47.540;18.712;2022-07-23T05:57:56;5.45;;;2.85;;
56523;SDS011;42422;47.540;18.712;2022-07-23T06:00:22;6.30;;;3.42;;
56523;SDS011;42422;47.540;18.712;2022-07-23T06:02:47;3.78;;;2.88;;
56523;SDS011;42422;47.540;18.712;2022-07-23T06:05:12;7.30;;;3.25;;
56523;SDS011;42422;47.540;18.712;2022-07-23T06:07:38;5.35;;;2.97;;
56523;SDS011;42422;47.540;18.712;2022-07-23T06:10:03;7.40;;;3.60;;
56523;SDS011;42422;47.540;18.712;2022-07-23T06:12:29;5.65;;;3.00;;
56523;SDS011;42422;47.540;18.712;2022-07-23T06:14:54;4.50;;;3.03;;
56523;SDS011;42422;47.540;18.712;2022-07-23T06:17:20;6.78;;;3.25;;
56523;SDS011;42422;47.540;18.712;2022-07-23T06:19:45;5.65;;;3.20;;
56523;SDS011;42422;47.540;18.712;2022-07-23T06:22:10;6.25;;;3.30;;
56523;SDS011;42422;47.540;18.712;2022-07-23T06:24:36;4.22;;;2.97;;
56523;SDS011;42422;47.540;18.712;2022-07-23T06:27:01;4.55;;;2.95;;
56523;SDS011;42422;47.540;18.712;2022-07-23T06:29:27;3.70;;;2.70;;
56523;SDS011;42422;47.540;18.712;2022-07-23T06:31:52;4.32;;;3.08;;
56523;SDS011;42422;47.540;18.712;2022-07-23T06:34:17;5.63;;;3.00;;
56523;SDS011;42422;47.540;18.712;2022-07-23T06:36:43;4.65;;;3.47;;
56523;SDS011;42422;47.540;18.712;2022-07-23T06:39:08;5.55;;;2.88;;
56523;SDS011;42422;47.540;18.712;2022-07-23T06:41:33;6.13;;;3.33;;
56523;SDS011;42422;47.540;18.712;2022-07-23T06:43:59;5.60;;;3.70;;
56523;SDS011;42422;47.540;18.712;2022-07-23T06:46:24;4.25;;;3.20;;
56523;SDS011;42422;47.540;18.712;2022-07-23T06:48:50;7.50;;;3.60;;
56523;SDS011;42422;47.540;18.712;2022-07-23T06:51:15;5.85;;;3.90;;
56523;SDS011;42422;47.540;18.712;2022-07-23T06:53:41;5.18;;;3.40;;
56523;SDS011;42422;47.540;18.712;2022-07-23T06:56:06;6.32;;;3.15;;
56523;SDS011;42422;47.540;18.712;2022-07-23T06:58:31;6.57;;;3.00;;
56523;SDS011;42422;47.540;18.712;2022-07-23T07:00:57;5.40;;;3.40;;
56523;SDS011;42422;47.540;18.712;2022-07-23T07:03:22;4.40;;;3.03;;
56523;SDS011;42422;47.540;18.712;2022-07-23T07:05:48;5.10;;;3.38;;
56523;SDS011;42422;47.540;18.712;2022-07-23T07:08:14;5.78;;;3.00;;
56523;SDS011;42422;47.540;18.712;2022-07-23T07:10:40;4.45;;;3.20;;
56523;SDS011;42422;47.540;18.712;2022-07-23T07:13:05;7.70;;;3.58;;
56523;SDS011;42422;47.540;18.712;2022-07-23T07:15:31;4.95;;;3.50;;
56523;SDS011;42422;47.540;18.712;2022-07-23T07:17:56;5.20;;;3.85;;
56523;SDS011;42422;47.540;18.712;2022-07-23T07:20:22;7.47;;;2.90;;
56523;SDS011;42422;47.540;18.712;2022-07-23T07:22:48;5.30;;;3.38;;
56523;SDS011;42422;47.540;18.712;2022-07-23T07:25:14;4.93;;;3.47;;
56523;SDS011;42422;47.540;18.712;2022-07-23T07:27:39;7.55;;;3.20;;
56523;SDS011;42422;47.540;18.712;2022-07-23T07:30:05;4.40;;;3.20;;
56523;SDS011;42422;47.540;18.712;2022-07-23T07:32:31;7.65;;;3.20;;
56523;SDS011;42422;47.540;18.712;2022-07-23T07:35:01;7.32;;;3.38;;
56523;SDS011;42422;47.540;18.712;2022-07-23T07:37:28;4.53;;;2.60;;
56523;SDS011;42422;47.540;18.712;2022-07-23T07:39:53;4.50;;;2.95;;
56523;SDS011;42422;47.540;18.712;2022-07-23T07:42:19;3.58;;;2.80;;
56523;SDS011;42422;47.540;18.712;2022-07-23T07:44:44;4.90;;;3.30;;
56523;SDS011;42422;47.540;18.712;2022-07-23T07:47:09;4.85;;;3.25;;
56523;SDS011;42422;47.540;18.712;2022-07-23T07:49:35;5.15;;;2.63;;
56523;SDS011;42422;47.540;18.712;2022-07-23T07:52:00;3.17;;;2.80;;
56523;SDS011;42422;47.540;18.712;2022-07-23T07:54:26;3.85;;;2.80;;
56523;SDS011;42422;47.540;18.712;2022-07-23T07:56:52;4.72;;;3.17;;
56523;SDS011;42422;47.540;18.712;2022-07-23T07:59:17;4.85;;;3.05;;
56523;SDS011;42422;47.540;18.712;2022-07-23T08:01:42;4.68;;;2.85;;
56523;SDS011;42422;47.540;18.712;2022-07-23T08:04:08;6.55;;;2.80;;
56523;SDS011;42422;47.540;18.712;2022-07-23T08:06:33;5.22;;;2.78;;
56523;SDS011;42422;47.540;18.712;2022-07-23T08:08:58;5.70;;;3.15;;
56523;SDS011;42422;47.540;18.712;2022-07-23T08:11:24;4.70;;;3.38;;
56523;SDS011;42422;47.540;18.712;2022-07-23T08:13:49;7.88;;;3.50;;
56523;SDS011;42422;47.540;18.712;2022-07-23T08:16:15;3.45;;;3.08;;
56523;SDS011;42422;47.540;18.712;2022-07-23T08:18:40;7.15;;;2.95;;
56523;SDS011;42422;47.540;18.712;2022-07-23T08:21:05;3.78;;;3.05;;
56523;SDS011;42422;47.540;18.712;2022-07-23T08:23:31;3.80;;;2.58;;
56523;SDS011;42422;47.540;18.712;2022-07-23T08:25:56;5.10;;;2.95;;
56523;SDS011;42422;47.540;18.712;2022-07-23T08:28:22;4.80;;;2.80;;
56523;SDS011;42422;47.540;18.712;2022-07-23T08:30:47;4.50;;;3.28;;
56523;SDS011;42422;47.540;18.712;2022-07-23T08:33:14;4.25;;;3.35;;
56523;SDS011;42422;47.540;18.712;2022-07-23T08:35:44;4.88;;;2.75;;
56523;SDS011;42422;47.540;18.712;2022-07-23T08:38:12;5.88;;;2.97;;
56523;SDS011;42422;47.540;18.712;2022-07-23T08:40:40;4.13;;;2.55;;
56523;SDS011;42422;47.540;18.712;2022-07-23T08:43:07;3.28;;;2.40;;
56523;SDS011;42422;47.540;18.712;2022-07-23T08:45:38;3.35;;;2.45;;
56523;SDS011;42422;47.540;18.712;2022-07-23T08:48:07;3.42;;;2.75;;
56523;SDS011;42422;47.540;18.712;2022-07-23T08:50:34;5.93;;;2.60;;
56523;SDS011;42422;47.540;18.712;2022-07-23T08:53:01;3.33;;;2.35;;
56523;SDS011;42422;47.540;18.712;2022-07-23T08:55:27;3.53;;;2.53;;
56523;SDS011;42422;47.540;18.712;2022-07-23T08:57:53;3.60;;;2.58;;
56523;SDS011;42422;47.540;18.712;2022-07-23T09:00:19;4.78;;;2.80;;
56523;SDS011;42422;47.540;18.712;2022-07-23T09:02:45;3.05;;;2.20;;
56523;SDS011;42422;47.540;18.712;2022-07-23T09:05:12;4.25;;;3.10;;
56523;SDS011;42422;47.540;18.712;2022-07-23T09:08:02;4.22;;;2.80;;
56523;SDS011;42422;47.540;18.712;2022-07-23T09:16:31;4.55;;;2.92;;
56523;SDS011;42422;47.540;18.712;2022-07-23T09:19:30;6.90;;;2.63;;
56523;SDS011;42422;47.540;18.712;2022-07-23T09:21:55;3.90;;;2.72;;
56523;SDS011;42422;47.540;18.712;2022-07-23T09:24:21;5.10;;;2.88;;
56523;SDS011;42422;47.540;18.712;2022-07-23T09:26:47;6.25;;;3.10;;
56523;SDS011;42422;47.540;18.712;2022-07-23T09:34:30;4.53;;;2.67;;
56523;SDS011;42422;47.540;18.712;2022-07-23T09:37:19;3.95;;;2.75;;
56523;SDS011;42422;47.540;18.712;2022-07-23T09:39:50;5.35;;;2.47;;
56523;SDS011;42422;47.540;18.712;2022-07-23T09:42:22;3.70;;;2.55;;
56523;SDS011;42422;47.540;18.712;2022-07-23T09:44:54;3.88;;;2.70;;
56523;SDS011;42422;47.540;18.712;2022-07-23T09:48:16;2.65;;;2.13;;
56523;SDS011;42422;47.540;18.712;2022-07-23T09:50:39;3.35;;;2.20;;
56523;SDS011;42422;47.540;18.712;2022-07-23T09:53:08;3.35;;;2.80;;
56523;SDS011;42422;47.540;18.712;2022-07-23T09:55:37;3.22;;;2.55;;
56523;SDS011;42422;47.540;18.712;2022-07-23T09:58:09;3.08;;;2.50;;
56523;SDS011;42422;47.540;18.712;2022-07-23T10:00:39;2.88;;;2.35;;
56523;SDS011;42422;47.540;18.712;2022-07-23T10:03:05;5.25;;;2.38;;
56523;SDS011;42422;47.540;18.712;2022-07-23T10:05:40;3.47;;;2.57;;
56523;SDS011;42422;47.540;18.712;2022-07-23T10:08:11;4.80;;;2.55;;
56523;SDS011;42422;47.540;18.712;2022-07-23T10:10:38;6.13;;;2.90;;
56523;SDS011;42422;47.540;18.712;2022-07-23T10:13:24;3.33;;;2.50;;
56523;SDS011;42422;47.540;18.712;2022-07-23T10:15:55;3.53;;;2.50;;
56523;SDS011;42422;47.540;18.712;2022-07-23T10:18:23;3.53;;;2.50;;
56523;SDS011;42422;47.540;18.712;2022-07-23T10:20:59;5.53;;;3.20;;
56523;SDS011;42422;47.540;18.712;2022-07-23T10:26:39;4.03;;;3.20;;
56523;SDS011;42422;47.540;18.712;2022-07-23T10:37:36;5.00;;;3.50;;
56523;SDS011;42422;47.540;18.712;2022-07-23T10:40:13;4.05;;;3.20;;
56523;SDS011;42422;47.540;18.712;2022-07-23T10:42:43;4.78;;;3.28;;
56523;SDS011;42422;47.540;18.712;2022-07-23T10:45:22;4.80;;;3.40;;
56523;SDS011;42422;47.540;18.712;2022-07-23T10:47:48;5.40;;;3.40;;
56523;SDS011;42422;47.540;18.712;2022-07-23T10:50:23;4.95;;;3.00;;
56523;SDS011;42422;47.540;18.712;2022-07-23T10:55:51;4.55;;;3.90;;
56523;SDS011;42422;47.540;18.712;2022-07-23T10:58:20;5.35;;;3.60;;
56523;SDS011;42422;47.540;18.712;2022-07-23T11:00:46;4.03;;;3.45;;
56523;SDS011;42422;47.540;18.712;2022-07-23T11:03:27;5.47;;;3.63;;
56523;SDS011;42422;47.540;18.712;2022-07-23T11:05:57;4.55;;;3.88;;
56523;SDS011;42422;47.540;18.712;2022-07-23T11:08:32;6.00;;;4.03;;
56523;SDS011;42422;47.540;18.712;2022-07-23T11:13:27;5.93;;;3.33;;
56523;SDS011;42422;47.540;18.712;2022-07-23T11:34:28;3.95;;;3.53;;
56523;SDS011;42422;47.540;18.712;2022-07-23T11:36:56;7.32;;;4.25;;
56523;SDS011;42422;47.540;18.712;2022-07-23T11:39:24;3.70;;;3.25;;
56523;SDS011;42422;47.540;18.712;2022-07-23T11:41:54;5.82;;;3.00;;
56523;SDS011;42422;47.540;18.712;2022-07-23T11:44:27;6.03;;;3.72;;
56523;SDS011;42422;47.540;18.712;2022-07-23T11:49:57;5.38;;;3.60;;
56523;SDS011;42422;47.540;18.712;2022-07-23T11:52:24;4.75;;;3.38;;
56523;SDS011;42422;47.540;18.712;2022-07-23T11:54:53;5.13;;;3.95;;
56523;SDS011;42422;47.540;18.712;2022-07-23T11:57:20;6.00;;;3.78;;
56523;SDS011;42422;47.540;18.712;2022-07-23T11:59:55;4.93;;;3.60;;
56523;SDS011;42422;47.540;18.712;2022-07-23T12:02:22;7.05;;;3.63;;
56523;SDS011;42422;47.540;18.712;2022-07-23T12:04:49;6.85;;;3.80;;
56523;SDS011;42422;47.540;18.712;2022-07-23T12:09:57;5.28;;;3.72;;
56523;SDS011;42422;47.540;18.712;2022-07-23T12:12:24;4.25;;;3.10;;
56523;SDS011;42422;47.540;18.712;2022-07-23T12:14:58;5.28;;;3.30;;
56523;SDS011;42422;47.540;18.712;2022-07-23T12:17:28;3.47;;;2.75;;
56523;SDS011;42422;47.540;18.712;2022-07-23T12:19:55;6.53;;;3.13;;
56523;SDS011;42422;47.540;18.712;2022-07-23T12:22:23;3.63;;;3.00;;
56523;SDS011;42422;47.540;18.712;2022-07-23T12:24:58;5.55;;;3.08;;
56523;SDS011;42422;47.540;18.712;2022-07-23T12:27:26;4.90;;;3.38;;
56523;SDS011;42422;47.540;18.712;2022-07-23T12:29:52;4.13;;;2.92;;
56523;SDS011;42422;47.540;18.712;2022-07-23T12:32:18;3.97;;;2.95;;
56523;SDS011;42422;47.540;18.712;2022-07-23T12:34:45;3.97;;;3.30;;
56523;SDS011;42422;47.540;18.712;2022-07-23T12:37:31;6.40;;;3.53;;
56523;SDS011;42422;47.540;18.712;2022-07-23T12:39:58;3.70;;;2.95;;
56523;SDS011;42422;47.540;18.712;2022-07-23T12:42:23;5.18;;;3.38;;
56523;SDS011;42422;47.540;18.712;2022-07-23T12:48:08;21.88;;;6.80;;
56523;SDS011;42422;47.540;18.712;2022-07-23T12:53:14;7.55;;;3.80;;
56523;SDS011;42422;47.540;18.712;2022-07-23T12:55:42;7.82;;;3.30;;
56523;SDS011;42422;47.540;18.712;2022-07-23T12:58:11;9.93;;;3.53;;
56523;SDS011;42422;47.540;18.712;2022-07-23T13:00:58;4.00;;;3.17;;
56523;SDS011;42422;47.540;18.712;2022-07-23T13:03:36;11.68;;;3.28;;
56523;SDS011;42422;47.540;18.712;2022-07-23T13:06:04;6.03;;;3.55;;
56523;SDS011;42422;47.540;18.712;2022-07-23T13:08:32;9.80;;;3.30;;
56523;SDS011;42422;47.540;18.712;2022-07-23T13:10:59;3.53;;;3.03;;
56523;SDS011;42422;47.540;18.712;2022-07-23T13:13:25;4.90;;;3.45;;
56523;SDS011;42422;47.540;18.712;2022-07-23T13:15:52;8.50;;;4.05;;
56523;SDS011;42422;47.540;18.712;2022-07-23T13:18:18;4.97;;;3.45;;
56523;SDS011;42422;47.540;18.712;2022-07-23T13:20:45;5.60;;;3.92;;
56523;SDS011;42422;47.540;18.712;2022-07-23T13:23:11;5.82;;;3.30;;
56523;SDS011;42422;47.540;18.712;2022-07-23T13:25:37;8.57;;;3.40;;
56523;SDS011;42422;47.540;18.712;2022-07-23T13:28:02;7.45;;;3.67;;
56523;SDS011;42422;47.540;18.712;2022-07-23T13:30:31;5.18;;;3.53;;
56523;SDS011;42422;47.540;18.712;2022-07-23T13:33:01;4.70;;;3.45;;
56523;SDS011;42422;47.540;18.712;2022-07-23T13:35:27;3.60;;;3.20;;
56523;SDS011;42422;47.540;18.712;2022-07-23T13:38:01;4.70;;;3.20;;
56523;SDS011;42422;47.540;18.712;2022-07-23T13:40:30;4.38;;;3.53;;
56523;SDS011;42422;47.540;18.712;2022-07-23T13:42:56;5.82;;;4.28;;
56523;SDS011;42422;47.540;18.712;2022-07-23T13:45:21;3.63;;;3.13;;
56523;SDS011;42422;47.540;18.712;2022-07-23T13:47:47;4.57;;;3.17;;
56523;SDS011;42422;47.540;18.712;2022-07-23T13:50:12;5.95;;;3.47;;
56523;SDS011;42422;47.540;18.712;2022-07-23T13:52:40;5.53;;;3.40;;
56523;SDS011;42422;47.540;18.712;2022-07-23T13:55:06;3.78;;;3.20;;
56523;SDS011;42422;47.540;18.712;2022-07-23T13:57:32;4.07;;;3.22;;
56523;SDS011;42422;47.540;18.712;2022-07-23T13:59:58;3.58;;;3.28;;
56523;SDS011;42422;47.540;18.712;2022-07-23T14:02:24;3.90;;;3.17;;
56523;SDS011;42422;47.540;18.712;2022-07-23T14:04:50;4.78;;;3.50;;
56523;SDS011;42422;47.540;18.712;2022-07-23T14:07:15;5.28;;;3.53;;
56523;SDS011;42422;47.540;18.712;2022-07-23T14:09:41;3.95;;;3.60;;
56523;SDS011;42422;47.540;18.712;2022-07-23T14:12:06;5.47;;;3.33;;
56523;SDS011;42422;47.540;18.712;2022-07-23T14:14:33;4.75;;;3.63;;
56523;SDS011;42422;47.540;18.712;2022-07-23T14:16:58;4.38;;;3.47;;
56523;SDS011;42422;47.540;18.712;2022-07-23T14:19:24;5.63;;;3.17;;
56523;SDS011;42422;47.540;18.712;2022-07-23T14:21:49;4.88;;;3.92;;
56523;SDS011;42422;47.540;18.712;2022-07-23T14:24:15;3.65;;;3.20;;
56523;SDS011;42422;47.540;18.712;2022-07-23T14:26:41;3.25;;;2.95;;
56523;SDS011;42422;47.540;18.712;2022-07-23T14:29:06;17.75;;;4.10;;
56523;SDS011;42422;47.540;18.712;2022-07-23T14:31:32;7.30;;;3.53;;
56523;SDS011;42422;47.540;18.712;2022-07-23T14:33:58;5.22;;;3.97;;
56523;SDS011;42422;47.540;18.712;2022-07-23T14:36:24;4.60;;;3.53;;
56523;SDS011;42422;47.540;18.712;2022-07-23T14:38:50;4.28;;;3.55;;
56523;SDS011;42422;47.540;18.712;2022-07-23T14:41:15;4.57;;;3.47;;
56523;SDS011;42422;47.540;18.712;2022-07-23T14:43:41;5.53;;;3.08;;
56523;SDS011;42422;47.540;18.712;2022-07-23T14:46:07;6.15;;;3.63;;
56523;SDS011;42422;47.540;18.712;2022-07-23T14:48:32;4.13;;;3.10;;
56523;SDS011;42422;47.540;18.712;2022-07-23T14:50:58;7.03;;;3.88;;
56523;SDS011;42422;47.540;18.712;2022-07-23T14:53:23;5.63;;;4.40;;
56523;SDS011;42422;47.540;18.712;2022-07-23T14:55:48;4.75;;;3.85;;
56523;SDS011;42422;47.540;18.712;2022-07-23T14:58:14;4.72;;;3.83;;
56523;SDS011;42422;47.540;18.712;2022-07-23T15:00:39;5.45;;;3.35;;
56523;SDS011;42422;47.540;18.712;2022-07-23T15:03:05;7.40;;;4.40;;
56523;SDS011;42422;47.540;18.712;2022-07-23T15:05:30;18.80;;;5.53;;
56523;SDS011;42422;47.540;18.712;2022-07-23T15:07:55;31.25;;;7.72;;
56523;SDS011;42422;47.540;18.712;2022-07-23T15:10:21;51.28;;;10.13;;
56523;SDS011;42422;47.540;18.712;2022-07-23T15:12:46;109.80;;;14.30;;
56523;SDS011;42422;47.540;18.712;2022-07-23T15:15:12;58.08;;;10.40;;
56523;SDS011;42422;47.540;18.712;2022-07-23T15:17:40;49.33;;;7.85;;
56523;SDS011;42422;47.540;18.712;2022-07-23T15:20:05;24.92;;;6.95;;
56523;SDS011;42422;47.540;18.712;2022-07-23T15:22:31;20.67;;;6.88;;
56523;SDS011;42422;47.540;18.712;2022-07-23T15:24:57;11.40;;;6.05;;
56523;SDS011;42422;47.540;18.712;2022-07-23T15:27:22;9.07;;;5.05;;
56523;SDS011;42422;47.540;18.712;2022-07-23T15:29:48;11.30;;;5.45;;